sensor_id;sensor_type;location;lat;lon;timestamp;P1;durP1;ratioP1;P2;durP2;ratioP2
5912;SDS011;2982;42.684;23.356;2022-07-01T00:00:26;3.53;;;3.33;;
5912;SDS011;2982;42.684;23.356;2022-07-01T00:02:52;7.18;;;3.30;;
5912;SDS011;2982;42.684;23.356;2022-07-01T00:05:17;3.80;;;3.58;;
5912;SDS011;2982;42.684;23.356;2022-07-01T00:07:42;7.00;;;3.85;;
5912;SDS011;2982;42.684;23.356;2022-07-01T00:10:08;4.00;;;3.58;;
5912;SDS011;2982;42.684;23.356;2022-07-01T00:12:33;4.47;;;3.20;;
5912;SDS011;2982;42.684;23.356;2022-07-01T00:14:59;5.30;;;3.13;;
5912;SDS011;2982;42.684;23.356;2022-07-01T00:17:24;4.47;;;3.20;;
5912;SDS011;2982;42.684;23.356;2022-07-01T00:19:49;5.63;;;3.05;;
5912;SDS011;2982;42.684;23.356;2022-07-01T00:22:14;5.22;;;3.17;;
5912;SDS011;2982;42.684;23.356;2022-07-01T00:24:40;4.32;;;3.25;;
5912;SDS011;2982;42.684;23.356;2022-07-01T00:27:05;3.55;;;3.35;;
5912;SDS011;2982;42.684;23.356;2022-07-01T00:29:30;5.60;;;2.67;;
5912;SDS011;2982;42.684;23.356;2022-07-01T00:31:56;4.32;;;3.40;;
5912;SDS011;2982;42.684;23.356;2022-07-01T00:34:21;2.90;;;2.60;;
5912;SDS011;2982;42.684;23.356;2022-07-01T00:36:46;6.07;;;3.10;;
5912;SDS011;2982;42.684;23.356;2022-07-01T00:39:11;4.40;;;2.72;;
5912;SDS011;2982;42.684;23.356;2022-07-01T00:41:37;5.07;;;3.30;;
5912;SDS011;2982;42.684;23.356;2022-07-01T00:44:02;3.03;;;2.72;;
5912;SDS011;2982;42.684;23.356;2022-07-01T00:46:28;4.97;;;2.45;;
5912;SDS011;2982;42.684;23.356;2022-07-01T00:48:58;3.78;;;2.92;;
5912;SDS011;2982;42.684;23.356;2022-07-01T00:51:23;5.22;;;2.97;;
5912;SDS011;2982;42.684;23.356;2022-07-01T00:53:49;5.18;;;3.05;;
5912;SDS011;2982;42.684;23.356;2022-07-01T00:56:15;3.28;;;2.75;;
5912;SDS011;2982;42.684;23.356;2022-07-01T00:58:40;5.68;;;2.85;;
5912;SDS011;2982;42.684;23.356;2022-07-01T01:01:06;6.82;;;3.15;;
5912;SDS011;2982;42.684;23.356;2022-07-01T01:03:31;3.33;;;3.10;;
5912;SDS011;2982;42.684;23.356;2022-07-01T01:05:57;8.32;;;3.58;;
5912;SDS011;2982;42.684;23.356;2022-07-01T01:08:23;2.65;;;2.45;;
5912;SDS011;2982;42.684;23.356;2022-07-01T01:10:48;5.45;;;3.08;;
5912;SDS011;2982;42.684;23.356;2022-07-01T01:13:14;4.63;;;2.97;;
5912;SDS011;2982;42.684;23.356;2022-07-01T01:15:40;3.72;;;3.28;;
5912;SDS011;2982;42.684;23.356;2022-07-01T01:18:05;4.28;;;2.83;;
5912;SDS011;2982;42.684;23.356;2022-07-01T01:20:37;5.07;;;3.33;;
5912;SDS011;2982;42.684;23.356;2022-07-01T01:23:02;4.60;;;3.13;;
5912;SDS011;2982;42.684;23.356;2022-07-01T01:25:28;3.25;;;3.05;;
5912;SDS011;2982;42.684;23.356;2022-07-01T01:27:53;5.13;;;3.25;;
5912;SDS011;2982;42.684;23.356;2022-07-01T01:30:19;5.20;;;3.10;;
5912;SDS011;2982;42.684;23.356;2022-07-01T01:32:44;5.65;;;3.25;;
5912;SDS011;2982;42.684;23.356;2022-07-01T01:35:09;3.83;;;2.92;;
5912;SDS011;2982;42.684;23.356;2022-07-01T01:37:35;4.97;;;2.95;;
5912;SDS011;2982;42.684;23.356;2022-07-01T01:40:01;3.55;;;2.83;;
5912;SDS011;2982;42.684;23.356;2022-07-01T01:42:27;4.93;;;3.22;;
5912;SDS011;2982;42.684;23.356;2022-07-01T01:44:52;3.50;;;3.15;;
5912;SDS011;2982;42.684;23.356;2022-07-01T01:47:18;3.25;;;3.05;;
5912;SDS011;2982;42.684;23.356;2022-07-01T01:49:43;3.15;;;2.95;;
5912;SDS011;2982;42.684;23.356;2022-07-01T01:52:08;6.18;;;3.30;;
5912;SDS011;2982;42.684;23.356;2022-07-01T01:54:34;3.55;;;3.20;;
5912;SDS011;2982;42.684;23.356;2022-07-01T01:56:59;4.72;;;3.85;;
5912;SDS011;2982;42.684;23.356;2022-07-01T01:59:24;5.68;;;3.80;;
5912;SDS011;2982;42.684;23.356;2022-07-01T02:01:50;7.57;;;3.13;;
5912;SDS011;2982;42.684;23.356;2022-07-01T02:04:15;3.53;;;3.28;;
5912;SDS011;2982;42.684;23.356;2022-07-01T02:06:41;3.50;;;3.13;;
5912;SDS011;2982;42.684;23.356;2022-07-01T02:09:07;5.28;;;3.80;;
5912;SDS011;2982;42.684;23.356;2022-07-01T02:11:32;4.45;;;4.03;;
5912;SDS011;2982;42.684;23.356;2022-07-01T02:13:58;4.35;;;3.25;;
5912;SDS011;2982;42.684;23.356;2022-07-01T02:16:23;7.78;;;3.55;;
5912;SDS011;2982;42.684;23.356;2022-07-01T02:18:48;7.40;;;3.95;;
5912;SDS011;2982;42.684;23.356;2022-07-01T02:21:13;3.38;;;3.13;;
5912;SDS011;2982;42.684;23.356;2022-07-01T02:23:39;3.70;;;3.50;;
5912;SDS011;2982;42.684;23.356;2022-07-01T02:26:04;4.57;;;3.50;;
5912;SDS011;2982;42.684;23.356;2022-07-01T02:28:29;4.53;;;3.75;;
5912;SDS011;2982;42.684;23.356;2022-07-01T02:30:54;4.53;;;3.70;;
5912;SDS011;2982;42.684;23.356;2022-07-01T02:33:20;6.05;;;4.53;;
5912;SDS011;2982;42.684;23.356;2022-07-01T02:35:45;5.63;;;4.00;;
5912;SDS011;2982;42.684;23.356;2022-07-01T02:38:10;5.47;;;4.63;;
5912;SDS011;2982;42.684;23.356;2022-07-01T02:40:36;7.60;;;4.10;;
5912;SDS011;2982;42.684;23.356;2022-07-01T02:43:01;5.70;;;5.20;;
5912;SDS011;2982;42.684;23.356;2022-07-01T02:45:26;7.55;;;4.72;;
5912;SDS011;2982;42.684;23.356;2022-07-01T02:47:52;4.68;;;4.28;;
5912;SDS011;2982;42.684;23.356;2022-07-01T02:50:18;5.15;;;4.22;;
5912;SDS011;2982;42.684;23.356;2022-07-01T02:52:44;6.38;;;4.65;;
5912;SDS011;2982;42.684;23.356;2022-07-01T02:55:10;7.10;;;4.50;;
5912;SDS011;2982;42.684;23.356;2022-07-01T02:57:37;5.85;;;4.65;;
5912;SDS011;2982;42.684;23.356;2022-07-01T03:00:04;5.45;;;4.43;;
5912;SDS011;2982;42.684;23.356;2022-07-01T03:02:31;6.93;;;4.32;;
5912;SDS011;2982;42.684;23.356;2022-07-01T03:04:57;8.95;;;5.32;;
5912;SDS011;2982;42.684;23.356;2022-07-01T03:07:23;8.05;;;4.43;;
5912;SDS011;2982;42.684;23.356;2022-07-01T03:09:48;9.68;;;5.25;;
5912;SDS011;2982;42.684;23.356;2022-07-01T03:12:14;12.68;;;6.00;;
5912;SDS011;2982;42.684;23.356;2022-07-01T03:14:39;6.15;;;5.28;;
5912;SDS011;2982;42.684;23.356;2022-07-01T03:17:05;5.35;;;4.85;;
5912;SDS011;2982;42.684;23.356;2022-07-01T03:19:30;5.25;;;4.85;;
5912;SDS011;2982;42.684;23.356;2022-07-01T03:21:55;9.88;;;4.93;;
5912;SDS011;2982;42.684;23.356;2022-07-01T03:24:20;7.35;;;4.88;;
5912;SDS011;2982;42.684;23.356;2022-07-01T03:26:46;8.70;;;4.70;;
5912;SDS011;2982;42.684;23.356;2022-07-01T03:29:11;9.60;;;5.43;;
5912;SDS011;2982;42.684;23.356;2022-07-01T03:31:36;13.38;;;4.88;;
5912;SDS011;2982;42.684;23.356;2022-07-01T03:34:02;5.88;;;5.07;;
5912;SDS011;2982;42.684;23.356;2022-07-01T03:36:27;11.85;;;5.35;;
5912;SDS011;2982;42.684;23.356;2022-07-01T03:38:52;7.07;;;5.30;;
5912;SDS011;2982;42.684;23.356;2022-07-01T03:41:17;7.28;;;5.88;;
5912;SDS011;2982;42.684;23.356;2022-07-01T03:43:43;8.50;;;5.30;;
5912;SDS011;2982;42.684;23.356;2022-07-01T03:46:08;16.27;;;5.95;;
5912;SDS011;2982;42.684;23.356;2022-07-01T03:48:33;9.95;;;6.05;;
5912;SDS011;2982;42.684;23.356;2022-07-01T03:50:59;10.90;;;5.07;;
5912;SDS011;2982;42.684;23.356;2022-07-01T03:53:24;8.82;;;5.20;;
5912;SDS011;2982;42.684;23.356;2022-07-01T03:55:49;14.50;;;4.88;;
5912;SDS011;2982;42.684;23.356;2022-07-01T03:58:14;6.30;;;4.55;;
5912;SDS011;2982;42.684;23.356;2022-07-01T04:00:40;10.05;;;5.55;;
5912;SDS011;2982;42.684;23.356;2022-07-01T04:03:05;9.32;;;5.35;;
5912;SDS011;2982;42.684;23.356;2022-07-01T04:05:34;15.93;;;5.38;;
5912;SDS011;2982;42.684;23.356;2022-07-01T04:08:01;9.13;;;4.72;;
5912;SDS011;2982;42.684;23.356;2022-07-01T04:10:30;5.20;;;4.80;;
5912;SDS011;2982;42.684;23.356;2022-07-01T04:12:56;7.03;;;5.20;;
5912;SDS011;2982;42.684;23.356;2022-07-01T04:15:22;5.45;;;4.95;;
5912;SDS011;2982;42.684;23.356;2022-07-01T04:17:47;8.70;;;4.95;;
5912;SDS011;2982;42.684;23.356;2022-07-01T04:20:12;9.73;;;5.28;;
5912;SDS011;2982;42.684;23.356;2022-07-01T04:22:38;5.40;;;4.80;;
5912;SDS011;2982;42.684;23.356;2022-07-01T04:25:03;9.23;;;5.30;;
5912;SDS011;2982;42.684;23.356;2022-07-01T04:27:30;9.70;;;6.18;;
5912;SDS011;2982;42.684;23.356;2022-07-01T04:29:55;6.90;;;5.05;;
5912;SDS011;2982;42.684;23.356;2022-07-01T04:32:21;8.55;;;4.90;;
5912;SDS011;2982;42.684;23.356;2022-07-01T04:34:46;8.50;;;5.35;;
5912;SDS011;2982;42.684;23.356;2022-07-01T04:37:11;8.48;;;5.03;;
5912;SDS011;2982;42.684;23.356;2022-07-01T04:39:37;6.35;;;5.82;;
5912;SDS011;2982;42.684;23.356;2022-07-01T04:42:02;6.00;;;5.15;;
5912;SDS011;2982;42.684;23.356;2022-07-01T04:44:29;12.20;;;5.68;;
5912;SDS011;2982;42.684;23.356;2022-07-01T04:47:03;8.02;;;5.38;;
5912;SDS011;2982;42.684;23.356;2022-07-01T04:49:29;6.97;;;5.50;;
5912;SDS011;2982;42.684;23.356;2022-07-01T04:51:55;5.72;;;5.22;;
5912;SDS011;2982;42.684;23.356;2022-07-01T04:54:22;11.35;;;5.97;;
5912;SDS011;2982;42.684;23.356;2022-07-01T04:56:48;6.68;;;6.10;;
5912;SDS011;2982;42.684;23.356;2022-07-01T04:59:14;11.15;;;6.20;;
5912;SDS011;2982;42.684;23.356;2022-07-01T05:01:40;10.20;;;6.13;;
5912;SDS011;2982;42.684;23.356;2022-07-01T05:04:11;7.65;;;6.35;;
5912;SDS011;2982;42.684;23.356;2022-07-01T05:06:37;12.45;;;6.45;;
5912;SDS011;2982;42.684;23.356;2022-07-01T05:09:02;7.65;;;6.80;;
5912;SDS011;2982;42.684;23.356;2022-07-01T05:11:28;8.18;;;7.05;;
5912;SDS011;2982;42.684;23.356;2022-07-01T05:13:53;8.65;;;6.88;;
5912;SDS011;2982;42.684;23.356;2022-07-01T05:16:19;11.98;;;6.80;;
5912;SDS011;2982;42.684;23.356;2022-07-01T05:18:44;9.27;;;7.47;;
5912;SDS011;2982;42.684;23.356;2022-07-01T05:21:09;9.88;;;6.70;;
5912;SDS011;2982;42.684;23.356;2022-07-01T05:23:35;8.77;;;6.78;;
5912;SDS011;2982;42.684;23.356;2022-07-01T05:26:01;14.73;;;6.50;;
5912;SDS011;2982;42.684;23.356;2022-07-01T05:28:28;7.82;;;6.65;;
5912;SDS011;2982;42.684;23.356;2022-07-01T05:30:53;7.43;;;6.70;;
5912;SDS011;2982;42.684;23.356;2022-07-01T05:33:19;9.95;;;7.00;;
5912;SDS011;2982;42.684;23.356;2022-07-01T05:35:44;6.43;;;5.85;;
5912;SDS011;2982;42.684;23.356;2022-07-01T05:38:09;9.35;;;6.60;;
5912;SDS011;2982;42.684;23.356;2022-07-01T05:40:35;13.75;;;6.95;;
5912;SDS011;2982;42.684;23.356;2022-07-01T05:43:00;8.95;;;6.22;;
5912;SDS011;2982;42.684;23.356;2022-07-01T05:45:25;7.50;;;6.57;;
5912;SDS011;2982;42.684;23.356;2022-07-01T05:47:50;11.40;;;6.60;;
5912;SDS011;2982;42.684;23.356;2022-07-01T05:50:16;14.32;;;6.93;;
5912;SDS011;2982;42.684;23.356;2022-07-01T05:52:41;7.45;;;6.13;;
5912;SDS011;2982;42.684;23.356;2022-07-01T05:55:07;7.90;;;6.60;;
5912;SDS011;2982;42.684;23.356;2022-07-01T05:57:32;15.30;;;6.18;;
5912;SDS011;2982;42.684;23.356;2022-07-01T05:59:58;23.95;;;7.60;;
5912;SDS011;2982;42.684;23.356;2022-07-01T06:02:23;11.48;;;6.35;;
5912;SDS011;2982;42.684;23.356;2022-07-01T06:04:48;11.02;;;6.70;;
5912;SDS011;2982;42.684;23.356;2022-07-01T06:07:13;16.30;;;7.30;;
5912;SDS011;2982;42.684;23.356;2022-07-01T06:09:39;15.48;;;6.82;;
5912;SDS011;2982;42.684;23.356;2022-07-01T06:12:04;9.77;;;6.38;;
5912;SDS011;2982;42.684;23.356;2022-07-01T06:14:30;13.13;;;7.70;;
5912;SDS011;2982;42.684;23.356;2022-07-01T06:16:56;11.18;;;6.47;;
5912;SDS011;2982;42.684;23.356;2022-07-01T06:19:21;7.90;;;7.20;;
5912;SDS011;2982;42.684;23.356;2022-07-01T06:21:47;7.63;;;6.82;;
5912;SDS011;2982;42.684;23.356;2022-07-01T06:24:12;10.30;;;6.60;;
5912;SDS011;2982;42.684;23.356;2022-07-01T06:26:38;10.93;;;7.15;;
5912;SDS011;2982;42.684;23.356;2022-07-01T06:29:03;7.63;;;6.93;;
5912;SDS011;2982;42.684;23.356;2022-07-01T06:31:28;14.82;;;6.32;;
5912;SDS011;2982;42.684;23.356;2022-07-01T06:33:57;10.60;;;6.65;;
5912;SDS011;2982;42.684;23.356;2022-07-01T06:36:22;10.35;;;7.18;;
5912;SDS011;2982;42.684;23.356;2022-07-01T06:38:47;9.93;;;7.03;;
5912;SDS011;2982;42.684;23.356;2022-07-01T06:41:12;8.52;;;5.63;;
5912;SDS011;2982;42.684;23.356;2022-07-01T06:43:38;11.80;;;6.32;;
5912;SDS011;2982;42.684;23.356;2022-07-01T06:46:03;10.70;;;6.72;;
5912;SDS011;2982;42.684;23.356;2022-07-01T06:48:29;9.52;;;6.43;;
5912;SDS011;2982;42.684;23.356;2022-07-01T06:50:55;14.25;;;6.50;;
5912;SDS011;2982;42.684;23.356;2022-07-01T06:53:20;13.38;;;6.38;;
5912;SDS011;2982;42.684;23.356;2022-07-01T06:55:45;12.10;;;6.43;;
5912;SDS011;2982;42.684;23.356;2022-07-01T06:58:10;9.43;;;6.05;;
5912;SDS011;2982;42.684;23.356;2022-07-01T07:00:36;10.82;;;6.15;;
5912;SDS011;2982;42.684;23.356;2022-07-01T07:03:01;11.18;;;6.22;;
5912;SDS011;2982;42.684;23.356;2022-07-01T07:05:27;8.02;;;5.80;;
5912;SDS011;2982;42.684;23.356;2022-07-01T07:07:52;14.63;;;5.85;;
5912;SDS011;2982;42.684;23.356;2022-07-01T07:10:18;10.07;;;6.18;;
5912;SDS011;2982;42.684;23.356;2022-07-01T07:12:43;15.80;;;6.00;;
5912;SDS011;2982;42.684;23.356;2022-07-01T07:15:08;11.35;;;5.57;;
5912;SDS011;2982;42.684;23.356;2022-07-01T07:17:34;13.07;;;6.53;;
5912;SDS011;2982;42.684;23.356;2022-07-01T07:19:59;9.52;;;6.50;;
5912;SDS011;2982;42.684;23.356;2022-07-01T07:22:24;24.92;;;6.40;;
5912;SDS011;2982;42.684;23.356;2022-07-01T07:24:49;6.60;;;5.70;;
5912;SDS011;2982;42.684;23.356;2022-07-01T07:27:15;6.25;;;5.65;;
5912;SDS011;2982;42.684;23.356;2022-07-01T07:29:40;6.97;;;5.53;;
5912;SDS011;2982;42.684;23.356;2022-07-01T07:32:06;7.65;;;5.47;;
5912;SDS011;2982;42.684;23.356;2022-07-01T07:34:31;11.73;;;5.97;;
5912;SDS011;2982;42.684;23.356;2022-07-01T07:36:56;8.00;;;5.60;;
5912;SDS011;2982;42.684;23.356;2022-07-01T07:39:22;8.68;;;5.75;;
5912;SDS011;2982;42.684;23.356;2022-07-01T07:41:47;8.02;;;5.72;;
5912;SDS011;2982;42.684;23.356;2022-07-01T07:44:12;7.32;;;5.95;;
5912;SDS011;2982;42.684;23.356;2022-07-01T07:46:37;10.82;;;6.55;;
5912;SDS011;2982;42.684;23.356;2022-07-01T07:49:03;8.80;;;5.47;;
5912;SDS011;2982;42.684;23.356;2022-07-01T07:51:28;10.68;;;5.07;;
5912;SDS011;2982;42.684;23.356;2022-07-01T07:53:53;13.13;;;5.13;;
5912;SDS011;2982;42.684;23.356;2022-07-01T07:56:19;6.07;;;5.55;;
5912;SDS011;2982;42.684;23.356;2022-07-01T07:58:44;14.82;;;5.80;;
5912;SDS011;2982;42.684;23.356;2022-07-01T08:01:09;12.95;;;5.25;;
5912;SDS011;2982;42.684;23.356;2022-07-01T08:03:35;9.60;;;6.40;;
5912;SDS011;2982;42.684;23.356;2022-07-01T08:06:01;8.07;;;5.57;;
5912;SDS011;2982;42.684;23.356;2022-07-01T08:08:26;6.45;;;5.55;;
5912;SDS011;2982;42.684;23.356;2022-07-01T08:10:51;7.88;;;5.43;;
5912;SDS011;2982;42.684;23.356;2022-07-01T08:13:16;10.35;;;5.40;;
5912;SDS011;2982;42.684;23.356;2022-07-01T08:15:42;10.48;;;5.40;;
5912;SDS011;2982;42.684;23.356;2022-07-01T08:18:07;9.90;;;5.75;;
5912;SDS011;2982;42.684;23.356;2022-07-01T08:20:32;6.05;;;4.97;;
5912;SDS011;2982;42.684;23.356;2022-07-01T08:22:58;8.93;;;5.55;;
5912;SDS011;2982;42.684;23.356;2022-07-01T08:25:23;5.82;;;5.05;;
5912;SDS011;2982;42.684;23.356;2022-07-01T08:27:48;7.43;;;4.85;;
5912;SDS011;2982;42.684;23.356;2022-07-01T08:30:14;17.55;;;5.35;;
5912;SDS011;2982;42.684;23.356;2022-07-01T08:32:39;10.20;;;4.90;;
5912;SDS011;2982;42.684;23.356;2022-07-01T08:35:04;5.65;;;4.20;;
5912;SDS011;2982;42.684;23.356;2022-07-01T08:37:30;5.93;;;5.38;;
5912;SDS011;2982;42.684;23.356;2022-07-01T08:39:55;5.60;;;5.10;;
5912;SDS011;2982;42.684;23.356;2022-07-01T08:42:20;8.43;;;5.13;;
5912;SDS011;2982;42.684;23.356;2022-07-01T08:44:46;4.95;;;4.60;;
5912;SDS011;2982;42.684;23.356;2022-07-01T08:47:11;5.18;;;4.60;;
5912;SDS011;2982;42.684;23.356;2022-07-01T08:49:37;9.88;;;4.68;;
5912;SDS011;2982;42.684;23.356;2022-07-01T08:52:03;8.52;;;4.28;;
5912;SDS011;2982;42.684;23.356;2022-07-01T08:54:28;8.32;;;4.60;;
5912;SDS011;2982;42.684;23.356;2022-07-01T08:56:53;7.30;;;4.55;;
5912;SDS011;2982;42.684;23.356;2022-07-01T08:59:23;6.32;;;5.22;;
5912;SDS011;2982;42.684;23.356;2022-07-01T09:02:00;10.10;;;5.18;;
5912;SDS011;2982;42.684;23.356;2022-07-01T09:04:28;5.97;;;4.53;;
5912;SDS011;2982;42.684;23.356;2022-07-01T09:06:57;6.93;;;4.43;;
5912;SDS011;2982;42.684;23.356;2022-07-01T09:09:27;8.25;;;3.80;;
5912;SDS011;2982;42.684;23.356;2022-07-01T09:11:53;8.77;;;4.65;;
5912;SDS011;2982;42.684;23.356;2022-07-01T09:14:27;4.95;;;3.75;;
5912;SDS011;2982;42.684;23.356;2022-07-01T09:16:54;8.40;;;4.20;;
5912;SDS011;2982;42.684;23.356;2022-07-01T09:19:22;8.73;;;4.20;;
5912;SDS011;2982;42.684;23.356;2022-07-01T09:21:54;5.60;;;3.88;;
5912;SDS011;2982;42.684;23.356;2022-07-01T09:24:37;3.75;;;3.45;;
5912;SDS011;2982;42.684;23.356;2022-07-01T09:27:05;4.85;;;3.70;;
5912;SDS011;2982;42.684;23.356;2022-07-01T09:29:33;4.65;;;3.35;;
5912;SDS011;2982;42.684;23.356;2022-07-01T09:32:00;9.05;;;3.78;;
5912;SDS011;2982;42.684;23.356;2022-07-01T09:34:27;9.35;;;3.88;;
5912;SDS011;2982;42.684;23.356;2022-07-01T09:37:06;4.50;;;4.10;;
5912;SDS011;2982;42.684;23.356;2022-07-01T09:39:43;5.03;;;3.55;;
5912;SDS011;2982;42.684;23.356;2022-07-01T09:42:12;4.55;;;2.78;;
5912;SDS011;2982;42.684;23.356;2022-07-01T09:47:30;4.75;;;3.45;;
5912;SDS011;2982;42.684;23.356;2022-07-01T09:49:57;6.55;;;3.55;;
5912;SDS011;2982;42.684;23.356;2022-07-01T09:52:23;4.75;;;2.80;;
5912;SDS011;2982;42.684;23.356;2022-07-01T09:54:49;3.97;;;3.05;;
5912;SDS011;2982;42.684;23.356;2022-07-01T09:57:16;5.63;;;3.42;;
5912;SDS011;2982;42.684;23.356;2022-07-01T09:59:42;4.53;;;3.50;;
5912;SDS011;2982;42.684;23.356;2022-07-01T10:02:10;8.48;;;4.32;;
5912;SDS011;2982;42.684;23.356;2022-07-01T10:04:37;9.77;;;4.07;;
5912;SDS011;2982;42.684;23.356;2022-07-01T10:12:24;4.82;;;3.47;;
5912;SDS011;2982;42.684;23.356;2022-07-01T10:14:56;4.78;;;4.40;;
5912;SDS011;2982;42.684;23.356;2022-07-01T10:17:26;6.32;;;4.03;;
5912;SDS011;2982;42.684;23.356;2022-07-01T10:19:57;7.03;;;3.55;;
5912;SDS011;2982;42.684;23.356;2022-07-01T10:22:34;5.07;;;4.32;;
5912;SDS011;2982;42.684;23.356;2022-07-01T10:33:29;5.57;;;4.15;;
5912;SDS011;2982;42.684;23.356;2022-07-01T10:39:07;8.88;;;4.72;;
5912;SDS011;2982;42.684;23.356;2022-07-01T10:44:11;7.95;;;5.78;;
5912;SDS011;2982;42.684;23.356;2022-07-01T10:52:00;5.65;;;4.22;;
5912;SDS011;2982;42.684;23.356;2022-07-01T11:02:25;7.30;;;4.50;;
5912;SDS011;2982;42.684;23.356;2022-07-01T11:04:52;6.22;;;3.28;;
5912;SDS011;2982;42.684;23.356;2022-07-01T11:07:20;4.30;;;3.22;;
5912;SDS011;2982;42.684;23.356;2022-07-01T11:09:48;9.15;;;3.75;;
5912;SDS011;2982;42.684;23.356;2022-07-01T11:12:16;5.00;;;3.30;;
5912;SDS011;2982;42.684;23.356;2022-07-01T11:14:42;6.68;;;3.47;;
5912;SDS011;2982;42.684;23.356;2022-07-01T11:17:08;4.28;;;3.90;;
5912;SDS011;2982;42.684;23.356;2022-07-01T11:19:34;3.95;;;3.55;;
5912;SDS011;2982;42.684;23.356;2022-07-01T11:22:00;3.58;;;3.28;;
5912;SDS011;2982;42.684;23.356;2022-07-01T11:24:26;5.97;;;3.95;;
5912;SDS011;2982;42.684;23.356;2022-07-01T11:26:54;3.58;;;3.28;;
5912;SDS011;2982;42.684;23.356;2022-07-01T11:29:25;4.13;;;2.85;;
5912;SDS011;2982;42.684;23.356;2022-07-01T11:31:52;4.90;;;3.55;;
5912;SDS011;2982;42.684;23.356;2022-07-01T11:34:18;5.43;;;3.28;;
5912;SDS011;2982;42.684;23.356;2022-07-01T11:36:45;3.47;;;3.17;;
5912;SDS011;2982;42.684;23.356;2022-07-01T11:39:11;5.45;;;2.90;;
5912;SDS011;2982;42.684;23.356;2022-07-01T11:41:37;4.40;;;3.13;;
5912;SDS011;2982;42.684;23.356;2022-07-01T11:44:02;4.05;;;3.25;;
5912;SDS011;2982;42.684;23.356;2022-07-01T11:46:27;3.40;;;3.10;;
5912;SDS011;2982;42.684;23.356;2022-07-01T11:48:53;3.38;;;3.17;;
5912;SDS011;2982;42.684;23.356;2022-07-01T11:51:20;6.43;;;3.65;;
5912;SDS011;2982;42.684;23.356;2022-07-01T11:53:53;6.78;;;3.63;;
5912;SDS011;2982;42.684;23.356;2022-07-01T11:59:00;5.47;;;3.20;;
5912;SDS011;2982;42.684;23.356;2022-07-01T12:01:30;3.08;;;2.92;;
5912;SDS011;2982;42.684;23.356;2022-07-01T12:03:59;3.45;;;2.95;;
5912;SDS011;2982;42.684;23.356;2022-07-01T12:06:26;3.22;;;2.92;;
5912;SDS011;2982;42.684;23.356;2022-07-01T12:08:52;2.72;;;2.53;;
5912;SDS011;2982;42.684;23.356;2022-07-01T12:11:19;3.45;;;3.15;;
5912;SDS011;2982;42.684;23.356;2022-07-01T12:13:46;3.17;;;2.97;;
5912;SDS011;2982;42.684;23.356;2022-07-01T12:16:12;2.70;;;2.50;;
5912;SDS011;2982;42.684;23.356;2022-07-01T12:18:39;3.00;;;2.80;;
5912;SDS011;2982;42.684;23.356;2022-07-01T12:21:04;3.00;;;2.70;;
5912;SDS011;2982;42.684;23.356;2022-07-01T12:23:30;3.10;;;2.90;;
5912;SDS011;2982;42.684;23.356;2022-07-01T12:25:55;3.20;;;3.00;;
5912;SDS011;2982;42.684;23.356;2022-07-01T12:31:11;2.72;;;2.40;;
5912;SDS011;2982;42.684;23.356;2022-07-01T12:33:37;3.47;;;2.30;;
5912;SDS011;2982;42.684;23.356;2022-07-01T12:36:05;8.13;;;3.03;;
5912;SDS011;2982;42.684;23.356;2022-07-01T12:38:32;2.15;;;2.05;;
5912;SDS011;2982;42.684;23.356;2022-07-01T12:40:57;6.05;;;2.78;;
5912;SDS011;2982;42.684;23.356;2022-07-01T12:43:30;3.80;;;2.40;;
5912;SDS011;2982;42.684;23.356;2022-07-01T12:45:57;3.25;;;2.50;;
5912;SDS011;2982;42.684;23.356;2022-07-01T12:48:23;4.13;;;2.70;;
5912;SDS011;2982;42.684;23.356;2022-07-01T12:50:51;2.88;;;2.30;;
5912;SDS011;2982;42.684;23.356;2022-07-01T12:53:18;3.67;;;3.38;;
5912;SDS011;2982;42.684;23.356;2022-07-01T12:55:46;9.95;;;3.53;;
5912;SDS011;2982;42.684;23.356;2022-07-01T12:58:16;4.35;;;3.63;;
5912;SDS011;2982;42.684;23.356;2022-07-01T13:00:48;11.20;;;3.85;;
5912;SDS011;2982;42.684;23.356;2022-07-01T13:03:17;4.00;;;3.60;;
5912;SDS011;2982;42.684;23.356;2022-07-01T13:05:47;8.38;;;4.30;;
5912;SDS011;2982;42.684;23.356;2022-07-01T13:08:12;3.50;;;3.30;;
5912;SDS011;2982;42.684;23.356;2022-07-01T13:10:37;6.90;;;3.55;;
5912;SDS011;2982;42.684;23.356;2022-07-01T13:13:03;4.40;;;3.72;;
5912;SDS011;2982;42.684;23.356;2022-07-01T13:15:29;6.07;;;3.60;;
5912;SDS011;2982;42.684;23.356;2022-07-01T13:17:55;5.15;;;4.38;;
5912;SDS011;2982;42.684;23.356;2022-07-01T13:20:20;4.45;;;3.50;;
5912;SDS011;2982;42.684;23.356;2022-07-01T13:22:46;3.28;;;3.08;;
5912;SDS011;2982;42.684;23.356;2022-07-01T13:25:11;6.88;;;2.97;;
5912;SDS011;2982;42.684;23.356;2022-07-01T13:27:37;7.40;;;3.13;;
5912;SDS011;2982;42.684;23.356;2022-07-01T13:30:04;8.32;;;3.40;;
5912;SDS011;2982;42.684;23.356;2022-07-01T13:32:31;3.22;;;2.97;;
5912;SDS011;2982;42.684;23.356;2022-07-01T13:34:56;3.28;;;3.05;;
5912;SDS011;2982;42.684;23.356;2022-07-01T13:37:21;3.28;;;3.08;;
5912;SDS011;2982;42.684;23.356;2022-07-01T13:39:47;3.67;;;3.45;;
5912;SDS011;2982;42.684;23.356;2022-07-01T13:42:12;3.55;;;3.15;;
5912;SDS011;2982;42.684;23.356;2022-07-01T13:44:38;4.20;;;3.20;;
5912;SDS011;2982;42.684;23.356;2022-07-01T13:47:03;6.35;;;3.50;;
5912;SDS011;2982;42.684;23.356;2022-07-01T13:49:29;7.55;;;3.50;;
5912;SDS011;2982;42.684;23.356;2022-07-01T13:51:54;5.07;;;3.67;;
5912;SDS011;2982;42.684;23.356;2022-07-01T13:54:19;5.72;;;3.80;;
5912;SDS011;2982;42.684;23.356;2022-07-01T13:56:45;7.55;;;3.88;;
5912;SDS011;2982;42.684;23.356;2022-07-01T13:59:10;4.53;;;4.15;;
5912;SDS011;2982;42.684;23.356;2022-07-01T14:01:36;4.13;;;3.75;;
5912;SDS011;2982;42.684;23.356;2022-07-01T14:04:02;3.75;;;3.53;;
5912;SDS011;2982;42.684;23.356;2022-07-01T14:06:27;4.05;;;3.85;;
5912;SDS011;2982;42.684;23.356;2022-07-01T14:08:53;5.88;;;3.45;;
5912;SDS011;2982;42.684;23.356;2022-07-01T14:11:18;4.53;;;3.40;;
5912;SDS011;2982;42.684;23.356;2022-07-01T14:13:43;4.88;;;3.80;;
5912;SDS011;2982;42.684;23.356;2022-07-01T14:16:09;8.45;;;3.75;;
5912;SDS011;2982;42.684;23.356;2022-07-01T14:18:34;4.65;;;3.70;;
5912;SDS011;2982;42.684;23.356;2022-07-01T14:21:02;3.22;;;2.95;;
5912;SDS011;2982;42.684;23.356;2022-07-01T14:23:28;5.63;;;3.70;;
5912;SDS011;2982;42.684;23.356;2022-07-01T14:25:54;3.58;;;3.28;;
5912;SDS011;2982;42.684;23.356;2022-07-01T14:28:19;5.03;;;3.92;;
5912;SDS011;2982;42.684;23.356;2022-07-01T14:30:45;3.63;;;3.33;;
5912;SDS011;2982;42.684;23.356;2022-07-01T14:33:11;3.83;;;3.53;;
5912;SDS011;2982;42.684;23.356;2022-07-01T14:35:37;3.85;;;3.45;;
5912;SDS011;2982;42.684;23.356;2022-07-01T14:38:02;4.80;;;3.85;;
5912;SDS011;2982;42.684;23.356;2022-07-01T14:40:30;3.60;;;3.10;;
5912;SDS011;2982;42.684;23.356;2022-07-01T14:42:55;5.63;;;3.55;;
5912;SDS011;2982;42.684;23.356;2022-07-01T14:45:21;3.30;;;3.10;;
5912;SDS011;2982;42.684;23.356;2022-07-01T14:47:46;4.05;;;3.75;;
5912;SDS011;2982;42.684;23.356;2022-07-01T14:50:11;3.90;;;3.63;;
5912;SDS011;2982;42.684;23.356;2022-07-01T14:52:37;5.72;;;3.47;;
5912;SDS011;2982;42.684;23.356;2022-07-01T14:55:03;3.80;;;3.45;;
5912;SDS011;2982;42.684;23.356;2022-07-01T14:57:29;3.35;;;3.03;;
5912;SDS011;2982;42.684;23.356;2022-07-01T14:59:54;7.28;;;3.60;;
5912;SDS011;2982;42.684;23.356;2022-07-01T15:02:20;4.03;;;3.60;;
5912;SDS011;2982;42.684;23.356;2022-07-01T15:04:46;4.32;;;3.75;;
5912;SDS011;2982;42.684;23.356;2022-07-01T15:07:12;3.83;;;3.58;;
5912;SDS011;2982;42.684;23.356;2022-07-01T15:09:38;4.07;;;3.58;;
5912;SDS011;2982;42.684;23.356;2022-07-01T15:12:03;3.72;;;3.42;;
5912;SDS011;2982;42.684;23.356;2022-07-01T15:14:29;4.13;;;3.70;;
5912;SDS011;2982;42.684;23.356;2022-07-01T15:16:55;6.25;;;3.72;;
5912;SDS011;2982;42.684;23.356;2022-07-01T15:19:20;4.00;;;3.70;;
5912;SDS011;2982;42.684;23.356;2022-07-01T15:21:45;4.95;;;3.95;;
5912;SDS011;2982;42.684;23.356;2022-07-01T15:24:11;3.63;;;3.40;;
5912;SDS011;2982;42.684;23.356;2022-07-01T15:26:36;3.90;;;3.60;;
5912;SDS011;2982;42.684;23.356;2022-07-01T15:29:02;3.67;;;3.38;;
5912;SDS011;2982;42.684;23.356;2022-07-01T15:31:27;3.53;;;3.22;;
5912;SDS011;2982;42.684;23.356;2022-07-01T15:33:53;4.57;;;4.03;;